Time;durP1;ratioP1;P1;durP2;ratioP2;P2;SDS_P1;SDS_P2;PMS_P1;PMS_P2;Temp;Humidity;BMP_temperature;BMP_pressure;BME280_temperature;BME280_humidity;BME280_pressure;Samples;Min_cycle;Max_cycle;Signal;HPM_P1;HPM_P2
2022/08/25 00:01:55;;;;;;;;;;;;;;;24.65;60.27;99643.31;4475594;32;34292;-62
2022/08/25 00:04:23;;;;;;;;;;;;;;;24.64;60.10;99636.16;4471005;32;33679;-62
2022/08/25 00:06:52;;;;;;;;;;;;;;;24.58;60.08;99637.00;4470734;32;33486;-62
2022/08/25 00:09:20;;;;;;;;;;;;;;;24.55;60.31;99631.94;4474186;32;35351;-62
2022/08/25 00:11:48;;;;;;;;;;;;;;;24.43;60.53;99633.59;4471107;32;33952;-62
2022/08/25 00:14:18;;;;;;;;;;;;;;;24.50;60.18;99632.59;4481394;32;33311;-62
2022/08/25 00:16:45;;;;;;;;;;;;;;;24.52;60.34;99635.09;4472470;32;34910;-62
2022/08/25 00:19:15;;;;;;;;;;;;;;;24.54;60.41;99635.75;4482822;32;35064;-62
2022/08/25 00:21:43;;;;;;;;;;;;;;;24.43;60.79;99636.34;4481821;32;32548;-62
2022/08/25 00:24:11;;;;;;;;;;;;;;;24.40;60.80;99632.12;4483385;32;33759;-62
2022/08/25 00:26:39;;;;;;;;;;;;;;;24.39;60.81;99630.41;4479547;32;32397;-62
2022/08/25 00:29:07;;;;;;;;;;;;;;;24.30;61.06;99626.19;4482121;32;32393;-62
2022/08/25 00:31:34;;;;;;;;;;;;;;;24.03;62.12;99628.00;4479859;32;34906;-62
2022/08/25 00:34:09;;;;;;;;;;;;;;;24.02;62.22;99626.31;4481443;32;33393;-62
2022/08/25 00:36:37;;;;;;;;;;;;;;;24.13;61.75;99629.28;4480192;32;34190;-62
2022/08/25 00:39:05;;;;;;;;;;;;;;;24.17;61.76;99618.78;4481586;32;34570;-62
2022/08/25 00:41:34;;;;;;;;;;;;;;;24.15;61.90;99624.47;4479999;32;34270;-62
2022/08/25 00:44:03;;;;;;;;;;;;;;;24.22;61.71;99620.91;4479373;32;33219;-62
2022/08/25 00:46:35;;;;;;;;;;;;;;;24.30;61.23;99617.97;4477907;32;33541;-62
2022/08/25 00:49:05;;;;;;;;;;;;;;;24.28;61.07;99622.81;4480356;32;33467;-62
2022/08/25 00:51:36;;;;;;;;;;;;;;;24.25;61.00;99618.59;4480332;32;32547;-62
2022/08/25 00:54:04;;;;;;;;;;;;;;;24.31;60.61;99619.69;4466643;32;33009;-62
2022/08/25 00:56:33;;;;;;;;;;;;;;;24.33;60.34;99621.16;4463114;32;32932;-62
2022/08/25 00:59:00;;;;;;;;;;;;;;;24.31;60.50;99617.78;4471115;32;34275;-62
2022/08/25 01:01:29;;;;;;;;;;;;;;;24.26;60.62;99622.19;4474997;32;34054;-61
2022/08/25 01:03:56;;;;;;;;;;;;;;;24.35;60.33;99619.03;4478019;32;34848;-63
2022/08/25 01:06:23;;;;;;;;;;;;;;;24.39;60.54;99611.25;4479185;32;32515;-63
2022/08/25 01:08:51;;;;;;;;;;;;;;;24.46;60.37;99614.03;4477332;32;35832;-63
2022/08/25 01:11:18;;;;;;;;;;;;;;;24.46;60.14;99611.31;4479852;32;33888;-63
2022/08/25 01:13:50;;;;;;;;;;;;;;;24.31;60.68;99619.69;4477042;32;33201;-63
2022/08/25 01:16:18;;;;;;;;;;;;;;;24.20;61.09;99617.53;4477355;32;34895;-62
2022/08/25 01:18:55;;;;;;;;;;;;;;;24.11;61.22;99614.16;4479512;32;33009;-63
2022/08/25 01:21:24;;;;;;;;;;;;;;;24.04;61.40;99616.84;4480808;32;34698;-62
2022/08/25 01:23:51;;;;;;;;;;;;;;;23.98;61.67;99617.69;4484047;32;33734;-63
2022/08/25 01:26:20;;;;;;;;;;;;;;;23.94;61.76;99609.03;4480458;32;33711;-63
2022/08/25 01:31:44;;;;;;;;;;;;;;;23.89;61.88;99614.28;4478908;32;34683;-63
2022/08/25 01:34:12;;;;;;;;;;;;;;;23.99;61.51;99615.81;4479860;32;34228;-63
2022/08/25 01:36:40;;;;;;;;;;;;;;;23.96;61.58;99606.13;4478642;32;32506;-63
2022/08/25 01:39:07;;;;;;;;;;;;;;;23.94;61.70;99613.66;4482568;32;35256;-63
2022/08/25 01:41:35;;;;;;;;;;;;;;;23.99;61.62;99605.69;4483865;32;34940;-62
2022/08/25 01:44:04;;;;;;;;;;;;;;;23.93;61.92;99606.53;4478164;31;33600;-62
2022/08/25 01:46:35;;;;;;;;;;;;;;;23.98;61.83;99605.88;4479648;32;34147;-62
2022/08/25 01:49:03;;;;;;;;;;;;;;;23.89;61.93;99611.56;4482374;32;35402;-62
2022/08/25 01:51:34;;;;;;;;;;;;;;;24.03;61.40;99612.44;4485225;32;34161;-62
2022/08/25 01:54:01;;;;;;;;;;;;;;;23.94;61.71;99608.19;4472839;32;33456;-62
2022/08/25 01:56:30;;;;;;;;;;;;;;;24.00;61.62;99607.38;4479768;32;35231;-62
2022/08/25 01:58:57;;;;;;;;;;;;;;;24.05;61.39;99613.09;4479339;32;35663;-62
2022/08/25 02:01:25;;;;;;;;;;;;;;;23.97;61.44;99617.88;4483683;32;35071;-63
2022/08/25 02:03:53;;;;;;;;;;;;;;;23.93;61.43;99612.81;4483321;32;34224;-62
2022/08/25 02:06:22;;;;;;;;;;;;;;;24.00;61.04;99612.00;4478178;32;34217;-62
2022/08/25 02:09:00;;;;;;;;;;;;;;;23.99;60.81;99611.16;4479036;32;35335;-62
2022/08/25 02:11:27;;;;;;;;;;;;;;;24.01;60.79;99603.59;4484146;32;33104;-63
2022/08/25 02:13:55;;;;;;;;;;;;;;;23.90;61.17;99601.47;4481948;32;34495;-63
2022/08/25 02:16:24;;;;;;;;;;;;;;;23.87;61.33;99599.97;4481021;32;34839;-62
2022/08/25 02:18:52;;;;;;;;;;;;;;;23.90;61.11;99605.03;4477169;32;35494;-62
2022/08/25 02:21:19;;;;;;;;;;;;;;;23.90;60.99;99609.66;4484742;32;35533;-62
2022/08/25 02:23:46;;;;;;;;;;;;;;;23.77;61.28;99601.41;4484641;32;33197;-62
2022/08/25 02:26:18;;;;;;;;;;;;;;;23.84;61.11;99600.38;4484041;32;33903;-62
2022/08/25 02:28:45;;;;;;;;;;;;;;;23.89;60.90;99600.62;4474065;32;34588;-63
2022/08/25 02:31:13;;;;;;;;;;;;;;;23.89;60.92;99589.69;4479639;32;35118;-63
2022/08/25 02:33:41;;;;;;;;;;;;;;;23.82;61.23;99599.75;4483359;32;33521;-62
2022/08/25 02:36:09;;;;;;;;;;;;;;;23.87;61.04;99601.88;4476874;32;35211;-63
2022/08/25 02:38:36;;;;;;;;;;;;;;;23.91;60.88;99603.13;4481127;32;34470;-62
2022/08/25 02:41:11;;;;;;;;;;;;;;;23.92;60.76;99602.94;4482991;32;32932;-62
2022/08/25 02:43:40;;;;;;;;;;;;;;;23.97;60.60;99604.22;4477802;32;33093;-62
2022/08/25 02:46:07;;;;;;;;;;;;;;;23.97;60.68;99601.47;4470599;32;34085;-62
2022/08/25 02:48:36;;;;;;;;;;;;;;;23.98;60.77;99601.28;4482549;32;35881;-62
2022/08/25 02:51:05;;;;;;;;;;;;;;;23.86;60.70;99592.00;4478434;32;35157;-62
2022/08/25 02:53:32;;;;;;;;;;;;;;;23.96;60.36;99588.87;4482374;32;33558;-62
2022/08/25 02:56:00;;;;;;;;;;;;;;;23.90;60.62;99596.00;4483520;32;33996;-61
2022/08/25 02:58:27;;;;;;;;;;;;;;;23.82;60.73;99587.97;4481678;32;33781;-62
2022/08/25 03:00:55;;;;;;;;;;;;;;;23.74;60.71;99590.88;4484152;32;34170;-62
2022/08/25 03:03:22;;;;;;;;;;;;;;;23.49;61.58;99591.34;4482523;32;32851;-61
2022/08/25 03:05:50;;;;;;;;;;;;;;;23.49;61.58;99591.34;4480254;32;34892;-62
2022/08/25 03:08:17;;;;;;;;;;;;;;;23.47;61.82;99586.12;4481569;32;35381;-62
2022/08/25 03:10:45;;;;;;;;;;;;;;;23.58;61.39;99587.41;4482273;32;35075;-62
2022/08/25 03:13:13;;;;;;;;;;;;;;;23.56;61.42;99589.50;4484018;32;33727;-62
2022/08/25 03:15:41;;;;;;;;;;;;;;;23.58;61.42;99587.41;4480155;32;35673;-62
2022/08/25 03:18:10;;;;;;;;;;;;;;;23.70;60.91;99591.28;4479735;32;35904;-62
2022/08/25 03:20:40;;;;;;;;;;;;;;;23.63;61.30;99584.94;4482477;32;34083;-63
2022/08/25 03:23:07;;;;;;;;;;;;;;;23.61;61.41;99584.28;4484023;32;32061;-62
2022/08/25 03:28:21;;;;;;;;;;;;;;;23.40;62.57;99584.38;4477589;32;35652;-64
2022/08/25 03:30:56;;;;;;;;;;;;;;;23.31;63.01;99582.87;4468177;32;34092;-63
2022/08/25 03:33:23;;;;;;;;;;;;;;;23.37;62.84;99590.22;4477182;32;34067;-63
2022/08/25 03:35:51;;;;;;;;;;;;;;;23.34;63.05;99583.31;4477467;32;33894;-63
2022/08/25 03:38:18;;;;;;;;;;;;;;;23.31;63.19;99586.44;4477625;32;34282;-64
2022/08/25 03:40:45;;;;;;;;;;;;;;;23.41;63.06;99589.66;4482104;32;33894;-63
2022/08/25 03:43:13;;;;;;;;;;;;;;;23.39;63.10;99586.25;4477181;32;33251;-64
2022/08/25 03:45:40;;;;;;;;;;;;;;;23.38;63.05;99594.69;4484331;32;34033;-63
2022/08/25 03:48:08;;;;;;;;;;;;;;;23.49;62.63;99592.19;4482235;32;35852;-64
2022/08/25 03:50:35;;;;;;;;;;;;;;;23.54;62.32;99594.34;4484116;32;34331;-64
2022/08/25 03:53:03;;;;;;;;;;;;;;;23.40;62.87;99584.38;4482963;32;33185;-63
2022/08/25 03:55:30;;;;;;;;;;;;;;;23.45;62.67;99585.47;4480169;32;34208;-64
2022/08/25 03:57:58;;;;;;;;;;;;;;;23.57;62.27;99584.91;4482303;32;34121;-64
2022/08/25 04:00:26;;;;;;;;;;;;;;;23.64;62.12;99594.81;4484803;32;34160;-64
2022/08/25 04:02:53;;;;;;;;;;;;;;;23.57;62.57;99587.63;4479568;32;33473;-63
2022/08/25 04:05:20;;;;;;;;;;;;;;;23.61;62.46;99597.09;4482273;32;35165;-63
2022/08/25 04:07:48;;;;;;;;;;;;;;;23.65;62.46;99598.38;4479464;32;33128;-63
2022/08/25 04:10:15;;;;;;;;;;;;;;;23.69;62.40;99596.94;4478583;32;33907;-63
2022/08/25 04:12:43;;;;;;;;;;;;;;;23.55;62.85;99593.28;4483664;32;33574;-63
2022/08/25 04:15:10;;;;;;;;;;;;;;;23.61;62.72;99592.47;4481149;32;34202;-64
2022/08/25 04:17:38;;;;;;;;;;;;;;;23.65;62.49;99599.22;4483729;32;33297;-63
2022/08/25 04:20:07;;;;;;;;;;;;;;;23.58;62.90;99600.25;4480935;32;35752;-62
2022/08/25 04:22:35;;;;;;;;;;;;;;;23.70;62.35;99599.50;4484206;32;33222;-63
2022/08/25 04:25:04;;;;;;;;;;;;;;;23.65;62.57;99601.94;4480761;32;34113;-63
2022/08/25 04:27:31;;;;;;;;;;;;;;;23.73;62.31;99600.97;4471016;32;35364;-62
2022/08/25 04:29:59;;;;;;;;;;;;;;;23.76;62.10;99603.31;4468733;32;33608;-62
2022/08/25 04:32:26;;;;;;;;;;;;;;;23.65;62.68;99601.09;4467966;32;33349;-61
2022/08/25 04:34:54;;;;;;;;;;;;;;;23.66;62.58;99598.19;4481386;32;32961;-62
2022/08/25 04:37:21;;;;;;;;;;;;;;;23.76;62.38;99597.84;4479668;32;34356;-62
2022/08/25 04:39:48;;;;;;;;;;;;;;;23.71;62.40;99592.97;4483875;32;33939;-62
2022/08/25 04:42:16;;;;;;;;;;;;;;;23.85;61.96;99593.88;4478416;32;33386;-62
2022/08/25 04:44:43;;;;;;;;;;;;;;;23.89;62.09;99602.53;4479253;32;34758;-62
2022/08/25 04:47:11;;;;;;;;;;;;;;;23.74;62.69;99596.34;4479253;32;35551;-62
2022/08/25 04:49:38;;;;;;;;;;;;;;;23.86;62.46;99592.84;4482669;32;35583;-65
2022/08/25 04:52:05;;;;;;;;;;;;;;;23.85;62.71;99591.16;4471904;32;34377;-61
2022/08/25 04:54:41;;;;;;;;;;;;;;;23.96;62.55;99594.34;4477122;32;32838;-62
2022/08/25 04:57:08;;;;;;;;;;;;;;;23.97;62.67;99596.84;4479740;32;34051;-62
2022/08/25 04:59:35;;;;;;;;;;;;;;;24.11;62.37;99597.75;4481939;32;33936;-62
2022/08/25 05:02:04;;;;;;;;;;;;;;;24.20;62.29;99595.66;4483933;32;34623;-62
2022/08/25 05:04:32;;;;;;;;;;;;;;;24.25;62.36;99594.00;4480960;32;34221;-62
2022/08/25 05:06:59;;;;;;;;;;;;;;;24.32;62.71;99602.22;4478649;32;33860;-62
2022/08/25 05:09:27;;;;;;;;;;;;;;;24.50;62.81;99605.22;4483090;32;33721;-62
2022/08/25 05:11:58;;;;;;;;;;;;;;;24.93;62.13;99602.06;4481262;32;33435;-62
2022/08/25 05:14:26;;;;;;;;;;;;;;;25.24;60.89;99597.87;4485171;32;33853;-62
2022/08/25 05:16:54;;;;;;;;;;;;;;;25.46;60.00;99591.06;4482742;32;33078;-62
2022/08/25 05:19:22;;;;;;;;;;;;;;;25.69;59.54;99595.22;4480054;32;32783;-62
2022/08/25 05:21:50;;;;;;;;;;;;;;;25.87;59.17;99589.87;4481099;32;34482;-63
2022/08/25 05:24:18;;;;;;;;;;;;;;;26.01;58.76;99594.25;4483762;32;33822;-63
2022/08/25 05:26:45;;;;;;;;;;;;;;;26.20;58.31;99588.87;4486052;32;34085;-63
2022/08/25 05:29:13;;;;;;;;;;;;;;;26.32;57.94;99592.59;4480402;32;34185;-63
2022/08/25 05:31:42;;;;;;;;;;;;;;;26.34;58.41;99600.59;4480447;32;33559;-63
2022/08/25 05:34:17;;;;;;;;;;;;;;;26.35;58.80;99594.03;4481936;32;33603;-63
2022/08/25 05:36:45;;;;;;;;;;;;;;;26.41;58.68;99594.00;4480685;32;35193;-63
2022/08/25 05:39:13;;;;;;;;;;;;;;;26.48;58.56;99589.37;4480920;32;34335;-63
2022/08/25 05:41:40;;;;;;;;;;;;;;;27.04;56.90;99590.37;4479642;32;33321;-63
2022/08/25 05:44:08;;;;;;;;;;;;;;;27.62;54.74;99584.50;4482047;32;33759;-63
2022/08/25 05:46:35;;;;;;;;;;;;;;;27.83;53.70;99585.97;4467574;32;34115;-62
2022/08/25 05:49:03;;;;;;;;;;;;;;;28.22;52.22;99597.50;4479734;32;33969;-63
2022/08/25 05:51:30;;;;;;;;;;;;;;;28.28;52.32;99587.44;4477967;32;33973;-63
2022/08/25 05:53:57;;;;;;;;;;;;;;;28.31;52.10;99586.97;4483259;32;35019;-63
2022/08/25 05:56:25;;;;;;;;;;;;;;;28.25;53.09;99587.91;4483802;32;35215;-63
2022/08/25 05:58:52;;;;;;;;;;;;;;;28.25;53.12;99583.28;4477001;32;33198;-63
2022/08/25 06:04:12;;;;;;;;;;;;;;;27.80;54.08;99585.56;4478213;32;32760;-63
2022/08/25 06:06:39;;;;;;;;;;;;;;;27.63;54.99;99579.81;4479625;32;35043;-63
2022/08/25 06:09:08;;;;;;;;;;;;;;;27.47;55.42;99586.78;4475933;31;33777;-63
2022/08/25 06:11:36;;;;;;;;;;;;;;;27.29;55.80;99584.03;4468569;32;34477;-63
2022/08/25 06:14:04;;;;;;;;;;;;;;;27.31;55.73;99590.13;4469124;31;32796;-63
2022/08/25 06:16:31;;;;;;;;;;;;;;;27.31;55.96;99587.38;4469176;32;34141;-63
2022/08/25 06:19:00;;;;;;;;;;;;;;;27.30;56.57;99588.47;4480770;32;35185;-63
2022/08/25 06:21:27;;;;;;;;;;;;;;;27.25;57.81;99585.53;4473437;32;34240;-63
2022/08/25 06:23:55;;;;;;;;;;;;;;;27.36;57.82;99593.03;4485407;32;35298;-63
2022/08/25 06:26:23;;;;;;;;;;;;;;;27.31;58.12;99593.72;4484685;32;34058;-63
2022/08/25 06:28:50;;;;;;;;;;;;;;;27.26;57.73;99595.47;4482778;32;33137;-63
2022/08/25 06:31:18;;;;;;;;;;;;;;;27.31;57.19;99590.97;4477082;32;34451;-63
2022/08/25 06:33:46;;;;;;;;;;;;;;;27.38;57.42;99585.41;4472208;32;33720;-63
2022/08/25 06:36:14;;;;;;;;;;;;;;;27.39;56.99;99595.34;4481609;32;35193;-63
2022/08/25 06:38:41;;;;;;;;;;;;;;;27.26;56.83;99595.47;4480181;32;34448;-63
2022/08/25 06:41:12;;;;;;;;;;;;;;;27.39;56.23;99600.84;4476755;32;31470;-63
2022/08/25 06:43:40;;;;;;;;;;;;;;;27.54;55.32;99603.19;4473280;32;33586;-63
2022/08/25 06:46:16;;;;;;;;;;;;;;;27.60;55.70;99599.53;4474503;32;32935;-63
2022/08/25 06:48:44;;;;;;;;;;;;;;;27.63;56.94;99602.66;4484199;32;34188;-63
2022/08/25 06:51:12;;;;;;;;;;;;;;;27.70;57.89;99604.50;4477177;32;33240;-63
2022/08/25 06:53:41;;;;;;;;;;;;;;;27.76;57.96;99609.06;4480372;32;33999;-63
2022/08/25 06:56:09;;;;;;;;;;;;;;;27.79;56.68;99611.41;4469623;32;33311;-63
2022/08/25 06:58:36;;;;;;;;;;;;;;;27.86;57.35;99617.66;4473263;32;35057;-63
2022/08/25 07:01:19;;;;;;;;;;;;;;;27.90;56.20;99613.37;4470332;32;33042;-63
2022/08/25 07:03:47;;;;;;;;;;;;;;;27.91;56.32;99615.06;4471739;32;33934;-63
2022/08/25 07:06:15;;;;;;;;;;;;;;;27.88;56.86;99612.75;4481485;32;35774;-63
2022/08/25 07:08:45;;;;;;;;;;;;;;;27.84;56.04;99606.06;4478872;32;33945;-63
2022/08/25 07:11:13;;;;;;;;;;;;;;;27.95;54.47;99612.69;4475059;32;33272;-62
2022/08/25 07:13:44;;;;;;;;;;;;;;;27.98;53.79;99615.81;4477870;32;34312;-63
2022/08/25 07:16:11;;;;;;;;;;;;;;;27.96;54.72;99609.72;4470933;32;33077;-63
2022/08/25 07:18:38;;;;;;;;;;;;;;;27.64;53.53;99604.34;4462799;32;33714;-63
2022/08/25 07:21:06;;;;;;;;;;;;;;;27.90;55.12;99612.53;4477822;32;33890;-63
2022/08/25 07:23:35;;;;;;;;;;;;;;;27.90;54.73;99610.63;4476985;32;33703;-63
2022/08/25 07:26:08;;;;;;;;;;;;;;;28.09;54.32;99598.53;4482693;32;35071;-63
2022/08/25 07:28:48;;;;;;;;;;;;;;;28.02;54.03;99608.75;4482265;32;34379;-63
2022/08/25 07:31:16;;;;;;;;;;;;;;;27.98;53.57;99609.47;4468926;32;133216;-63
2022/08/25 07:36:30;;;;;;;;;;;;;;;28.04;54.24;99606.63;4470185;32;35027;-63
2022/08/25 07:38:58;;;;;;;;;;;;;;;28.21;54.94;99611.47;4480504;32;35167;-63
2022/08/25 07:41:25;;;;;;;;;;;;;;;28.32;54.68;99613.44;4472422;32;33411;-63
2022/08/25 07:43:53;;;;;;;;;;;;;;;28.51;53.19;99606.84;4469575;32;33807;-63
2022/08/25 07:46:20;;;;;;;;;;;;;;;28.43;53.67;99611.84;4481605;32;33049;-63
2022/08/25 07:48:47;;;;;;;;;;;;;;;28.41;51.93;99605.72;4478043;32;35147;-63
2022/08/25 07:51:19;;;;;;;;;;;;;;;28.25;52.63;99607.19;4478884;32;33072;-63
2022/08/25 07:53:48;;;;;;;;;;;;;;;28.56;51.76;99604.19;4480649;32;34021;-63
2022/08/25 07:56:16;;;;;;;;;;;;;;;28.46;52.08;99608.62;4482520;32;34248;-63
2022/08/25 07:58:44;;;;;;;;;;;;;;;28.51;51.51;99601.34;4471026;32;35227;-63
2022/08/25 08:01:15;;;;;;;;;;;;;;;28.67;51.33;99602.56;4471241;32;33215;-63
2022/08/25 08:03:43;;;;;;;;;;;;;;;28.99;50.81;99596.75;4478634;32;34174;-63
2022/08/25 08:06:18;;;;;;;;;;;;;;;28.91;47.96;99605.34;4480397;31;32944;-64
2022/08/25 08:08:48;;;;;;;;;;;;;;;29.06;47.56;99599.41;4480803;32;33770;-63
2022/08/25 08:11:25;;;;;;;;;;;;;;;28.24;48.06;99608.25;4471862;32;31871;-63
2022/08/25 08:13:53;;;;;;;;;;;;;;;28.75;47.26;99609.63;4479580;32;34354;-63
2022/08/25 08:16:22;;;;;;;;;;;;;;;29.07;48.43;99604.66;4478919;32;34289;-63
2022/08/25 08:18:50;;;;;;;;;;;;;;;28.88;47.73;99614.94;4478540;32;35167;-63
2022/08/25 08:21:22;;;;;;;;;;;;;;;28.89;47.91;99616.62;4479443;32;33560;-63
2022/08/25 08:23:50;;;;;;;;;;;;;;;29.12;46.39;99606.72;4477704;32;33783;-63
2022/08/25 08:26:23;;;;;;;;;;;;;;;29.25;46.97;99609.25;4475458;32;34234;-63
2022/08/25 08:29:08;;;;;;;;;;;;;;;28.81;48.00;99608.69;4473743;32;34661;-63
2022/08/25 08:31:36;;;;;;;;;;;;;;;29.07;47.24;99610.19;4471433;32;32984;-63
2022/08/25 08:34:03;;;;;;;;;;;;;;;29.12;47.45;99612.25;4478279;32;32743;-64
2022/08/25 08:36:30;;;;;;;;;;;;;;;29.49;46.90;99604.53;4478641;32;32927;-63
2022/08/25 08:38:59;;;;;;;;;;;;;;;29.04;46.57;99607.06;4468270;32;34988;-63
2022/08/25 08:44:41;;;;;;;;;;;;;;;29.11;46.04;99602.28;4480129;32;34237;-63
2022/08/25 08:47:11;;;;;;;;;;;;;;;29.57;45.46;99603.34;4482890;32;34047;-63
2022/08/25 08:49:45;;;;;;;;;;;;;;;29.63;46.40;99607.88;4479518;32;34190;-63
2022/08/25 08:52:12;;;;;;;;;;;;;;;29.48;46.67;99611.13;4475765;32;34482;-63
2022/08/25 08:54:40;;;;;;;;;;;;;;;29.75;44.68;99600.44;4475596;32;33957;-63
2022/08/25 08:57:12;;;;;;;;;;;;;;;29.97;45.25;99603.38;4469074;32;35155;-63
2022/08/25 08:59:46;;;;;;;;;;;;;;;30.09;44.85;99595.91;4473518;32;34024;-63
2022/08/25 09:02:17;;;;;;;;;;;;;;;29.83;45.60;99599.22;4465868;32;33869;-63
2022/08/25 09:05:15;;;;;;;;;;;;;;;29.55;44.86;99598.06;4466396;32;33752;-64
2022/08/25 09:07:50;;;;;;;;;;;;;;;30.23;43.35;99590.09;4471691;32;35459;-63
2022/08/25 09:10:23;;;;;;;;;;;;;;;30.21;42.32;99597.78;4471840;32;35251;-63
2022/08/25 09:12:59;;;;;;;;;;;;;;;30.08;41.54;99590.59;4475603;32;32459;-63
2022/08/25 09:18:49;;;;;;;;;;;;;;;30.30;42.52;99583.34;4481752;32;35045;-63
2022/08/25 09:21:29;;;;;;;;;;;;;;;30.48;42.56;99582.28;4479362;32;34318;-63
2022/08/25 09:24:16;;;;;;;;;;;;;;;30.70;41.89;99573.28;4467045;32;33133;-63
2022/08/25 09:27:05;;;;;;;;;;;;;;;30.30;42.65;99571.47;4473535;32;32845;-64
2022/08/25 09:29:59;;;;;;;;;;;;;;;30.32;41.69;99569.31;4470065;32;33728;-63
2022/08/25 09:32:33;;;;;;;;;;;;;;;31.06;40.98;99569.19;4474804;32;34861;-63
2022/08/25 09:35:02;;;;;;;;;;;;;;;30.29;40.57;99565.09;4472425;32;31759;-63
2022/08/25 09:37:29;;;;;;;;;;;;;;;30.75;40.45;99563.12;4477129;32;34046;-64
2022/08/25 09:39:58;;;;;;;;;;;;;;;30.53;40.86;99559.44;4481331;32;34132;-63
2022/08/25 09:42:45;;;;;;;;;;;;;;;30.69;42.02;99557.78;4479424;32;34173;-63
2022/08/25 09:45:16;;;;;;;;;;;;;;;31.02;40.39;99555.03;4481035;32;33440;-66
2022/08/25 09:47:43;;;;;;;;;;;;;;;30.46;41.86;99556.00;4472566;32;35308;-64
2022/08/25 09:50:16;;;;;;;;;;;;;;;30.67;40.56;99538.69;4475485;32;34548;-63
2022/08/25 09:52:45;;;;;;;;;;;;;;;31.02;40.11;99537.63;4481935;32;34355;-63
2022/08/25 09:55:29;;;;;;;;;;;;;;;31.44;38.11;99539.91;4477934;32;33463;-63
2022/08/25 09:57:59;;;;;;;;;;;;;;;31.65;38.98;99538.19;4471159;32;34231;-63
2022/08/25 10:00:33;;;;;;;;;;;;;;;31.59;39.85;99530.94;4482687;32;33009;-63
2022/08/25 10:03:09;;;;;;;;;;;;;;;31.95;39.02;99529.47;4470197;32;35425;-64
2022/08/25 10:05:49;;;;;;;;;;;;;;;32.17;38.58;99523.88;4471188;32;33189;-64
2022/08/25 10:08:32;;;;;;;;;;;;;;;32.14;38.56;99522.47;4464535;32;32457;-64
2022/08/25 10:11:01;;;;;;;;;;;;;;;32.08;38.66;99522.69;4481876;32;35089;-63
2022/08/25 10:13:33;;;;;;;;;;;;;;;32.17;37.54;99519.19;4481854;32;33554;-64
2022/08/25 10:16:05;;;;;;;;;;;;;;;32.53;36.65;99521.47;4482870;32;33898;-63
2022/08/25 10:19:09;;;;;;;;;;;;;;;32.82;36.09;99513.66;4479005;32;32885;-63
2022/08/25 10:21:37;;;;;;;;;;;;;;;32.99;35.35;99517.12;4479464;32;33079;-64
2022/08/25 10:24:06;;;;;;;;;;;;;;;32.66;36.08;99519.06;4481383;32;35042;-63
2022/08/25 10:26:40;;;;;;;;;;;;;;;32.97;36.03;99515.69;4477311;32;32493;-64
2022/08/25 10:29:08;;;;;;;;;;;;;;;33.11;34.61;99514.97;4479265;32;34256;-64
2022/08/25 10:31:48;;;;;;;;;;;;;;;33.21;34.25;99505.87;4477463;32;33978;-64
2022/08/25 10:34:21;;;;;;;;;;;;;;;33.00;33.19;99509.62;4469793;32;35240;-65
2022/08/25 10:36:51;;;;;;;;;;;;;;;33.39;33.87;99501.81;4470153;32;31628;-64
2022/08/25 10:39:25;;;;;;;;;;;;;;;33.35;33.64;99498.72;4485746;32;34982;-64
2022/08/25 10:42:14;;;;;;;;;;;;;;;33.11;34.25;99494.75;4474435;32;34301;-64
2022/08/25 10:47:38;;;;;;;;;;;;;;;33.95;32.52;99485.34;4483444;32;33302;-64
2022/08/25 10:50:13;;;;;;;;;;;;;;;33.89;33.57;99486.44;4476942;32;32997;-64
2022/08/25 10:52:53;;;;;;;;;;;;;;;33.91;32.90;99486.19;4480941;32;33816;-64
2022/08/25 10:55:36;;;;;;;;;;;;;;;33.92;33.17;99488.69;4467800;32;34100;-65
2022/08/25 10:58:22;;;;;;;;;;;;;;;34.05;31.49;99485.41;4468915;32;33406;-64
2022/08/25 11:00:54;;;;;;;;;;;;;;;34.10;31.65;99479.03;4469012;32;34192;-65
2022/08/25 11:03:31;;;;;;;;;;;;;;;33.73;32.85;99479.19;4469361;32;33952;-64
2022/08/25 11:06:03;;;;;;;;;;;;;;;33.82;33.02;99477.56;4474515;32;33938;-65
2022/08/25 11:08:47;;;;;;;;;;;;;;;34.13;32.83;99464.59;4470056;32;33323;-65
2022/08/25 11:11:20;;;;;;;;;;;;;;;34.39;31.19;99459.03;4475368;32;34387;-65
2022/08/25 11:14:07;;;;;;;;;;;;;;;34.59;30.58;99461.00;4470158;32;35294;-65
2022/08/25 11:16:45;;;;;;;;;;;;;;;33.94;31.94;99463.44;4468600;32;34286;-65
2022/08/25 11:19:16;;;;;;;;;;;;;;;34.13;32.18;99456.25;4470910;32;33577;-64
2022/08/25 11:21:50;;;;;;;;;;;;;;;34.20;31.08;99459.59;4456642;32;32347;-64
2022/08/25 11:24:25;;;;;;;;;;;;;;;34.07;30.87;99449.03;4477676;32;34361;-64
2022/08/25 11:26:55;;;;;;;;;;;;;;;34.31;30.64;99449.31;4469788;32;34292;-65
2022/08/25 11:29:26;;;;;;;;;;;;;;;34.41;30.87;99448.47;4480023;32;31932;-65
2022/08/25 11:31:57;;;;;;;;;;;;;;;34.44;31.11;99436.81;4477037;31;35673;-65
2022/08/25 11:34:31;;;;;;;;;;;;;;;34.45;30.30;99433.75;4467667;32;33374;-64
2022/08/25 11:37:06;;;;;;;;;;;;;;;34.55;30.92;99435.72;4481599;31;34975;-64
2022/08/25 11:39:56;;;;;;;;;;;;;;;34.72;29.98;99430.69;4468816;32;31594;-64
2022/08/25 11:42:34;;;;;;;;;;;;;;;34.38;30.75;99421.25;4468587;32;32513;-63
2022/08/25 11:45:06;;;;;;;;;;;;;;;34.10;30.97;99423.50;4462943;32;34880;-62
2022/08/25 11:47:34;;;;;;;;;;;;;;;34.42;31.08;99412.09;4481083;31;35582;-62
2022/08/25 11:50:07;;;;;;;;;;;;;;;34.38;31.40;99407.34;4480704;32;34567;-62
2022/08/25 11:52:42;;;;;;;;;;;;;;;34.53;31.22;99408.19;4476059;31;34313;-62
2022/08/25 11:55:10;;;;;;;;;;;;;;;34.44;31.33;99407.06;4477014;32;35086;-62
2022/08/25 11:57:38;;;;;;;;;;;;;;;33.48;32.10;99408.63;4467403;32;34818;-62
2022/08/25 12:00:08;;;;;;;;;;;;;;;33.76;33.33;99410.09;4481631;32;33221;-62
2022/08/25 12:02:41;;;;;;;;;;;;;;;33.81;32.06;99395.41;4478393;32;35194;-63
2022/08/25 12:05:09;;;;;;;;;;;;;;;33.69;33.21;99403.16;4476469;32;34038;-63
2022/08/25 12:08:37;;;;;;;;;;;;;;;33.63;33.71;99403.12;4475701;32;34166;-63
2022/08/25 12:11:06;;;;;;;;;;;;;;;34.35;32.25;99394.88;4480436;32;33207;-62
2022/08/25 12:13:47;;;;;;;;;;;;;;;34.46;31.92;99390.97;4460828;31;32453;-63
2022/08/25 12:16:35;;;;;;;;;;;;;;;34.39;31.27;99392.38;4473515;32;33837;-62
2022/08/25 12:19:21;;;;;;;;;;;;;;;34.51;31.56;99384.56;4481324;31;33127;-62
2022/08/25 12:21:49;;;;;;;;;;;;;;;34.65;31.51;99390.41;4469406;32;31934;-62
2022/08/25 12:24:19;;;;;;;;;;;;;;;34.21;31.86;99394.59;4463359;32;33496;-62
2022/08/25 12:26:47;;;;;;;;;;;;;;;34.64;31.07;99392.34;4474005;32;36844;-62
2022/08/25 12:29:14;;;;;;;;;;;;;;;34.01;34.80;99395.44;4471397;32;34049;-62
2022/08/25 12:31:48;;;;;;;;;;;;;;;34.00;35.29;99390.97;4478654;31;34366;-62
2022/08/25 12:34:24;;;;;;;;;;;;;;;33.80;35.85;99388.16;4479372;32;33969;-62
2022/08/25 12:37:12;;;;;;;;;;;;;;;33.68;36.65;99388.47;4475381;31;34343;-63
2022/08/25 12:39:44;;;;;;;;;;;;;;;32.92;36.66;99389.00;4480067;32;32999;-62
2022/08/25 12:42:32;;;;;;;;;;;;;;;32.94;36.76;99381.25;4478351;31;32541;-63
2022/08/25 12:45:14;;;;;;;;;;;;;;;33.68;35.84;99382.91;4473091;31;34409;-64
2022/08/25 12:47:43;;;;;;;;;;;;;;;33.92;34.16;99377.63;4477542;31;33947;-64
2022/08/25 12:50:26;;;;;;;;;;;;;;;33.98;34.56;99370.97;4475930;32;35087;-64
2022/08/25 12:52:56;;;;;;;;;;;;;;;34.07;33.02;99369.34;4473985;31;34300;-65
2022/08/25 12:55:23;;;;;;;;;;;;;;;34.16;32.81;99371.53;4476534;32;34011;-64
2022/08/25 12:57:57;;;;;;;;;;;;;;;33.52;34.19;99367.34;4458222;32;32672;-64
2022/08/25 13:00:28;;;;;;;;;;;;;;;34.07;33.40;99369.34;4467658;32;35110;-64
2022/08/25 13:03:15;;;;;;;;;;;;;;;34.08;33.18;99367.41;4454103;32;32750;-64
2022/08/25 13:05:46;;;;;;;;;;;;;;;34.13;33.22;99367.41;4475993;32;35196;-65
2022/08/25 13:08:20;;;;;;;;;;;;;;;33.80;34.63;99368.75;4474572;31;34681;-64
2022/08/25 13:10:49;;;;;;;;;;;;;;;33.54;35.59;99370.66;4472355;32;35203;-64
2022/08/25 13:13:35;;;;;;;;;;;;;;;33.31;36.56;99361.72;4474682;32;34307;-64
2022/08/25 13:16:07;;;;;;;;;;;;;;;33.86;35.72;99356.53;4466437;32;32754;-65
2022/08/25 13:18:35;;;;;;;;;;;;;;;34.08;35.36;99356.28;4470698;31;33192;-64
2022/08/25 13:21:14;;;;;;;;;;;;;;;32.91;37.75;99362.38;4471091;32;36008;-64
2022/08/25 13:23:43;;;;;;;;;;;;;;;33.11;37.63;99354.16;4474925;32;33283;-64
2022/08/25 13:26:14;;;;;;;;;;;;;;;33.36;37.38;99353.41;4461398;32;32422;-64
2022/08/25 13:28:42;;;;;;;;;;;;;;;33.42;37.62;99356.19;4466531;32;35305;-64